Observations for RENNES ST. JACQUES, France (LFRN)

LFRN 230530Z AUTO 17008KT 4900 BR OVC003 09/09 Q1022 TEMPO 1500 DZ BR   
LFRN 230500Z AUTO 18007KT 5000 BR OVC004 09/09 Q1023 TEMPO 1500 DZ BR   
LFRN 230430Z AUTO 19009KT 8000 -RA OVC004/// ///TCU 09/09 Q1023 TEMPO 1500 DZ BR BKN002 
LFRN 230400Z AUTO 19007KT 9000 OVC003 08/08 Q1023 TEMPO 1500 DZ BR OVC008   
LFRN 230330Z AUTO 17006KT 3800 BR VV/// 08/08 Q1023 TEMPO 1500 DZ BR BKN002 
LFRN 230300Z AUTO 18005KT 1600 1400 R28L/1900D BR VV/// 08/08 Q1024 TEMPO 4000 RA BECMG OVC008  
LFRN 230230Z AUTO 18006KT 1600 BR VV/// 08/07 Q1024 TEMPO 4000 RA BECMG OVC008  
LFRN 230200Z AUTO 19004KT 0800 R28L/0900U FG VV/// 07/07 Q1024 TEMPO 4000 RA BECMG OVC008   
LFRN 230130Z AUTO 18005KT 7000 BKN003 OVC120 06/06 Q1024 TEMPO 4000 RA BECMG OVC008 
LFRN 230100Z AUTO 18006KT CAVOK 06/05 Q1024 BECMG BKN012
LFRN 230030Z AUTO 20005KT CAVOK 06/05 Q1024 BECMG BKN012
LFRN 230000Z AUTO 18004KT CAVOK 06/05 Q1024 BECMG BKN012
LFRN 222330Z AUTO 20005KT 9999 SCT027 BKN240 07/05 Q1024 BECMG BKN012   
LFRN 222300Z AUTO 20006KT 9999 OVC027 09/06 Q1024 NOSIG 
LFRN 222230Z AUTO 21005KT 9999 OVC028 09/06 Q1024 NOSIG 
LFRN 222200Z AUTO 18004KT 9999 OVC029 09/06 Q1024 NOSIG 
LFRN 222130Z AUTO 21005KT 9999 OVC031 08/06 Q1024 NOSIG 
LFRN 222100Z AUTO 23004KT 9999 BKN031 08/05 Q1024 NOSIG 
LFRN 222030Z AUTO 24003KT CAVOK 08/05 Q1024 NOSIG   
LFRN 222000Z AUTO 28002KT CAVOK 08/05 Q1024 NOSIG   
LFRN 221930Z AUTO 25004KT 220V280 9999 BKN033 09/05 Q1024 NOSIG 
LFRN 221900Z AUTO 28004KT 230V310 9999 OVC034 10/05 Q1023 NOSIG 
LFRN 221830Z AUTO 27004KT 240V320 9999 OVC035 10/06 Q1023 NOSIG 
LFRN 221800Z AUTO 29006KT 9999 OVC036 10/06 Q1023 NOSIG 
LFRN 221730Z AUTO 31005KT 9999 FEW030 SCT039 09/06 Q1022 NOSIG  
LFRN 221700Z AUTO 29004KT 9999 BKN031 OVC039 11/07 Q1022 NOSIG  
LFRN 221630Z AUTO 29007KT 9999 OVC036 11/07 Q1022 NOSIG 
LFRN 221600Z AUTO 29009KT 9999 OVC032 12/07 Q1021 NOSIG 
LFRN 221530Z AUTO 30011KT 9999 BKN030 OVC036 12/07 Q1021 NOSIG  
LFRN 221500Z AUTO 31010KT 9999 BKN029 OVC036 12/07 Q1020 NOSIG  
LFRN 221430Z AUTO 31013KT 9999 FEW027 BKN036 12/08 Q1020 NOSIG  
LFRN 221400Z AUTO 31015KT 9999 FEW027 BKN032 12/08 Q1019 NOSIG  
LFRN 221330Z AUTO 31015KT 9999 BKN023 BKN028 12/08 Q1019 NOSIG  
LFRN 221300Z AUTO 31014KT 9999 FEW018 BKN030 OVC045 12/09 Q1019 NOSIG   
LFRN 221230Z AUTO 32018KT 9999 FEW013 SCT020 BKN037 11/09 Q1018 NOSIG   
LFRN 221200Z AUTO 32018KT 9999 -RA BKN015 OVC025 10/09 Q1017 TEMPO 32020G35KT SHRA BKN012   
LFRN 221130Z AUTO 32017G28KT 9999 OVC013 11/09 Q1017 TEMPO SHRA BECMG 30010KT BKN020
LFRN 221100Z AUTO 32022G35KT 290V350 9999 BKN012 OVC019 11/09 Q1016 TEMPO 4000 SHRA BKN008  
LFRN 221030Z AUTO 29024KT 9999 BKN017 OVC022 12/10 Q1013 TEMPO 4000 SHRA BKN008 BECMG 30020G35KT
LFRN 221000Z AUTO 27018KT 9999 OVC024 13/09 Q1012 TEMPO 4000 SHRA BKN008 BECMG 30020G35KT   
LFRN 220930Z AUTO 25017G28KT 220V280 9999 BKN026 BKN032 OVC040 13/10 Q1011 TEMPO 4000 SHRA BKN008   
LFRN 220900Z AUTO 25015KT 9999 BKN022 OVC028 13/11 Q1011 TEMPO 4000 SHRA BKN008 BECMG 30020G35KT
LFRN 220830Z AUTO 25015KT 9999 OVC021 13/11 Q1012 TEMPO 4000 SHRA BKN008 BECMG 30020G35KT   
LFRN 220800Z AUTO 24013KT 9999 FEW007 BKN019 BKN040 13/11 Q1011 TEMPO 4000 SHRA BKN008 BECMG 24015G25KT 
LFRN 220730Z AUTO 24013G24KT 9999 -DZ BKN008 OVC013 13/12 Q1012 TEMPO 4000 SHRA 
LFRN 220700Z AUTO 23012KT 4500 -RA BR BKN007 OVC011 12/12 Q1012 TEMPO SHRA BKN004 BECMG 24015G25KT  
LFRN 220630Z AUTO 23013KT 9999 OVC011 13/11 Q1012 TEMPO 4000 SHRA BKN008 BECMG 24015G25KT   
LFRN 220600Z AUTO 23013KT 200V260 9000 OVC011 13/12 Q1013 TEMPO 3000 RADZ BR BKN004 BECMG 24015G25KT
LFRN 220530Z AUTO 23014KT 200V260 9999 OVC011 13/12 Q1013 TEMPO 3000 RADZ BR BKN006 BECMG 24015G25KT
LFRN 220500Z AUTO 24014KT 9999 OVC012 13/12 Q1013 TEMPO 3000 RADZ BR BKN004 BECMG 24015G25KT